Detroit, Michigan
Traffic Map
Current Weather Conditions
Detroit, Michigan
Few Clouds
Few Clouds
48°
Feels Like: 46°
Wind Chill: 46° Ceiling: Unl
Heat Index: 48° Visibility: 10mi
Dew Point: 46° Wind: 5mph
Humidity: 93% Direction: 80° (E)
Pressure: 29.71in Gusts: 0mph
Raw Report DataCYQG 261000Z 08004KT 10SM FEW150 09/08 A2971 RMK AC1 SLP061
Traffic Incident Summary
Active as of:
Severity:
Category:
InformationThere was an issue retrieving the traffic information for this location. Please try a different location or try again shortly.
Advertisements
Track Severe Weather on mobile